sensor_id;sensor_type;location;lat;lon;timestamp;pressure;altitude;pressure_sealevel;temperature;humidity
73671;BME280;61968;48.178;11.566;2023-11-19T00:00:34;95847.00;;;4.98;50.61
73671;BME280;61968;48.178;11.566;2023-11-19T00:02:59;95843.38;;;4.99;50.62
73671;BME280;61968;48.178;11.566;2023-11-19T00:05:26;95837.06;;;4.86;50.84
73671;BME280;61968;48.178;11.566;2023-11-19T00:07:54;95840.13;;;4.97;50.66
73671;BME280;61968;48.178;11.566;2023-11-19T00:10:20;95834.06;;;4.89;50.96
73671;BME280;61968;48.178;11.566;2023-11-19T00:12:48;95819.94;;;4.90;51.22
73671;BME280;61968;48.178;11.566;2023-11-19T00:15:16;95814.34;;;5.00;51.05
73671;BME280;61968;48.178;11.566;2023-11-19T00:17:44;95803.50;;;5.03;51.10
73671;BME280;61968;48.178;11.566;2023-11-19T00:20:12;95795.06;;;5.08;50.82
73671;BME280;61968;48.178;11.566;2023-11-19T00:22:38;95795.88;;;5.08;50.83
73671;BME280;61968;48.178;11.566;2023-11-19T00:25:06;95789.06;;;5.21;50.56
73671;BME280;61968;48.178;11.566;2023-11-19T00:27:32;95798.34;;;5.17;50.69
73671;BME280;61968;48.178;11.566;2023-11-19T00:29:59;95785.00;;;5.11;51.18
73671;BME280;61968;48.178;11.566;2023-11-19T00:32:27;95794.84;;;5.09;50.95
73671;BME280;61968;48.178;11.566;2023-11-19T00:34:54;95785.78;;;5.12;51.39
73671;BME280;61968;48.178;11.566;2023-11-19T00:37:21;95786.06;;;5.24;50.81
73671;BME280;61968;48.178;11.566;2023-11-19T00:39:47;95785.03;;;5.18;51.34
73671;BME280;61968;48.178;11.566;2023-11-19T00:42:14;95780.56;;;5.12;51.67
73671;BME280;61968;48.178;11.566;2023-11-19T00:44:40;95776.91;;;5.13;51.96
73671;BME280;61968;48.178;11.566;2023-11-19T00:47:07;95770.09;;;5.19;51.36
73671;BME280;61968;48.178;11.566;2023-11-19T00:49:35;95772.94;;;5.24;51.70
73671;BME280;61968;48.178;11.566;2023-11-19T00:52:01;95766.50;;;5.26;51.71
73671;BME280;61968;48.178;11.566;2023-11-19T00:54:28;95758.47;;;5.34;51.02
73671;BME280;61968;48.178;11.566;2023-11-19T00:56:55;95757.06;;;5.38;51.58
73671;BME280;61968;48.178;11.566;2023-11-19T00:59:22;95750.63;;;5.34;51.60
73671;BME280;61968;48.178;11.566;2023-11-19T01:01:48;95756.28;;;5.45;51.05
73671;BME280;61968;48.178;11.566;2023-11-19T01:04:16;95751.84;;;5.52;51.11
73671;BME280;61968;48.178;11.566;2023-11-19T01:06:44;95749.22;;;5.38;51.68
73671;BME280;61968;48.178;11.566;2023-11-19T01:09:10;95746.38;;;5.40;51.48
73671;BME280;61968;48.178;11.566;2023-11-19T01:11:37;95743.16;;;5.38;51.78
73671;BME280;61968;48.178;11.566;2023-11-19T01:14:04;95741.91;;;5.27;52.18
73671;BME280;61968;48.178;11.566;2023-11-19T01:16:30;95740.72;;;5.36;52.24
73671;BME280;61968;48.178;11.566;2023-11-19T01:18:57;95740.88;;;5.28;52.73
73671;BME280;61968;48.178;11.566;2023-11-19T01:21:23;95742.91;;;5.26;52.92
73671;BME280;61968;48.178;11.566;2023-11-19T01:23:51;95738.88;;;5.30;52.61
73671;BME280;61968;48.178;11.566;2023-11-19T01:26:18;95725.78;;;5.30;52.95
73671;BME280;61968;48.178;11.566;2023-11-19T01:28:44;95729.81;;;5.26;53.32
73671;BME280;61968;48.178;11.566;2023-11-19T01:31:12;95718.72;;;5.31;53.25
73671;BME280;61968;48.178;11.566;2023-11-19T01:33:39;95720.13;;;5.27;53.82
73671;BME280;61968;48.178;11.566;2023-11-19T01:36:07;95720.13;;;5.27;53.99
73671;BME280;61968;48.178;11.566;2023-11-19T01:38:34;95722.53;;;5.22;54.43
73671;BME280;61968;48.178;11.566;2023-11-19T01:41:01;95724.19;;;5.29;53.73
73671;BME280;61968;48.178;11.566;2023-11-19T01:43:33;95721.78;;;5.34;53.59
73671;BME280;61968;48.178;11.566;2023-11-19T01:45:59;95712.91;;;5.49;53.73
73671;BME280;61968;48.178;11.566;2023-11-19T01:48:26;95713.94;;;5.48;53.50
73671;BME280;61968;48.178;11.566;2023-11-19T01:50:53;95710.69;;;5.52;53.59
73671;BME280;61968;48.178;11.566;2023-11-19T01:53:20;95703.66;;;5.53;53.78
73671;BME280;61968;48.178;11.566;2023-11-19T01:55:46;95704.84;;;5.44;54.37
73671;BME280;61968;48.178;11.566;2023-11-19T01:58:16;95707.66;;;5.35;55.11
73671;BME280;61968;48.178;11.566;2023-11-19T02:00:44;95697.75;;;5.31;55.97
73671;BME280;61968;48.178;11.566;2023-11-19T02:03:11;95690.91;;;5.36;55.44
73671;BME280;61968;48.178;11.566;2023-11-19T02:05:38;95692.72;;;5.43;55.37
73671;BME280;61968;48.178;11.566;2023-11-19T02:08:05;95693.75;;;5.48;55.81
73671;BME280;61968;48.178;11.566;2023-11-19T02:10:32;95682.06;;;5.57;55.72
73671;BME280;61968;48.178;11.566;2023-11-19T02:12:58;95681.88;;;5.59;55.49
73671;BME280;61968;48.178;11.566;2023-11-19T02:15:26;95673.00;;;5.53;56.19
73671;BME280;61968;48.178;11.566;2023-11-19T02:17:53;95666.75;;;5.61;56.06
73671;BME280;61968;48.178;11.566;2023-11-19T02:20:19;95666.56;;;5.63;55.75
73671;BME280;61968;48.178;11.566;2023-11-19T02:22:46;95662.50;;;5.67;55.24
73671;BME280;61968;48.178;11.566;2023-11-19T02:25:17;95657.47;;;5.72;55.38
73671;BME280;61968;48.178;11.566;2023-11-19T02:27:51;95650.41;;;5.72;55.10
73671;BME280;61968;48.178;11.566;2023-11-19T02:30:20;95649.38;;;5.73;55.77
73671;BME280;61968;48.178;11.566;2023-11-19T02:32:51;95637.50;;;5.77;55.37
73671;BME280;61968;48.178;11.566;2023-11-19T02:35:18;95636.69;;;5.83;55.52
73671;BME280;61968;48.178;11.566;2023-11-19T02:37:46;95634.47;;;5.80;55.69
73671;BME280;61968;48.178;11.566;2023-11-19T02:40:13;95630.44;;;5.78;56.28
73671;BME280;61968;48.178;11.566;2023-11-19T02:42:40;95629.63;;;5.84;56.04
73671;BME280;61968;48.178;11.566;2023-11-19T02:45:08;95631.84;;;5.80;56.15
73671;BME280;61968;48.178;11.566;2023-11-19T02:47:40;95628.81;;;5.90;55.40
73671;BME280;61968;48.178;11.566;2023-11-19T02:50:08;95625.38;;;5.96;55.48
73671;BME280;61968;48.178;11.566;2023-11-19T02:52:39;95619.91;;;5.98;56.24
73671;BME280;61968;48.178;11.566;2023-11-19T02:55:06;95610.81;;;6.00;56.22
73671;BME280;61968;48.178;11.566;2023-11-19T02:57:35;95601.75;;;6.03;56.29
73671;BME280;61968;48.178;11.566;2023-11-19T03:00:01;95600.72;;;6.04;56.67
73671;BME280;61968;48.178;11.566;2023-11-19T03:05:09;95600.31;;;6.14;56.77
73671;BME280;61968;48.178;11.566;2023-11-19T03:07:36;95605.34;;;6.15;56.77
73671;BME280;61968;48.178;11.566;2023-11-19T03:10:03;95601.75;;;6.16;56.89
73671;BME280;61968;48.178;11.566;2023-11-19T03:12:31;95596.88;;;6.20;57.10
73671;BME280;61968;48.178;11.566;2023-11-19T03:14:57;95588.22;;;6.26;57.05
73671;BME280;61968;48.178;11.566;2023-11-19T03:17:24;95584.16;;;6.30;56.93
73671;BME280;61968;48.178;11.566;2023-11-19T03:19:51;95587.78;;;6.36;56.82
73671;BME280;61968;48.178;11.566;2023-11-19T03:22:18;95594.22;;;6.40;56.76
73671;BME280;61968;48.178;11.566;2023-11-19T03:24:46;95590.59;;;6.41;57.47
73671;BME280;61968;48.178;11.566;2023-11-19T03:27:12;95572.81;;;6.36;57.85
73671;BME280;61968;48.178;11.566;2023-11-19T03:29:38;95575.41;;;6.43;57.81
73671;BME280;61968;48.178;11.566;2023-11-19T03:32:05;95568.75;;;6.40;57.92
73671;BME280;61968;48.178;11.566;2023-11-19T03:34:31;95577.03;;;6.44;57.73
73671;BME280;61968;48.178;11.566;2023-11-19T03:36:59;95583.72;;;6.46;58.13
73671;BME280;61968;48.178;11.566;2023-11-19T03:39:26;95577.22;;;6.49;58.18
73671;BME280;61968;48.178;11.566;2023-11-19T03:41:52;95585.50;;;6.46;58.78
73671;BME280;61968;48.178;11.566;2023-11-19T03:44:19;95584.66;;;6.52;58.10
73671;BME280;61968;48.178;11.566;2023-11-19T03:46:46;95584.44;;;6.60;58.03
73671;BME280;61968;48.178;11.566;2023-11-19T03:49:13;95583.00;;;6.64;58.44
73671;BME280;61968;48.178;11.566;2023-11-19T03:51:39;95592.94;;;6.62;58.79
73671;BME280;61968;48.178;11.566;2023-11-19T03:54:07;95589.28;;;6.63;59.19
73671;BME280;61968;48.178;11.566;2023-11-19T03:56:34;95579.97;;;6.67;58.99
73671;BME280;61968;48.178;11.566;2023-11-19T03:59:00;95581.78;;;6.67;59.20
73671;BME280;61968;48.178;11.566;2023-11-19T04:01:26;95573.97;;;6.54;59.91
73671;BME280;61968;48.178;11.566;2023-11-19T04:03:53;95574.59;;;6.42;60.99
73671;BME280;61968;48.178;11.566;2023-11-19T04:06:21;95582.28;;;6.44;61.03
73671;BME280;61968;48.178;11.566;2023-11-19T04:08:47;95588.16;;;6.39;61.72
73671;BME280;61968;48.178;11.566;2023-11-19T04:11:16;95581.28;;;6.45;61.72
73671;BME280;61968;48.178;11.566;2023-11-19T04:13:42;95585.66;;;6.58;61.00
73671;BME280;61968;48.178;11.566;2023-11-19T04:16:09;95575.63;;;6.41;62.33
73671;BME280;61968;48.178;11.566;2023-11-19T04:18:35;95575.78;;;6.53;61.90
73671;BME280;61968;48.178;11.566;2023-11-19T04:21:05;95586.16;;;6.35;62.07
73671;BME280;61968;48.178;11.566;2023-11-19T04:23:31;95592.22;;;6.22;62.39
73671;BME280;61968;48.178;11.566;2023-11-19T04:25:58;95596.84;;;6.40;62.78
73671;BME280;61968;48.178;11.566;2023-11-19T04:28:26;95591.97;;;6.43;62.13
73671;BME280;61968;48.178;11.566;2023-11-19T04:30:52;95595.00;;;6.47;62.27
73671;BME280;61968;48.178;11.566;2023-11-19T04:33:18;95592.13;;;6.55;62.41
73671;BME280;61968;48.178;11.566;2023-11-19T04:35:45;95585.75;;;6.31;63.66
73671;BME280;61968;48.178;11.566;2023-11-19T04:38:11;95583.94;;;6.38;63.97
73671;BME280;61968;48.178;11.566;2023-11-19T04:40:38;95582.91;;;6.39;63.35
73671;BME280;61968;48.178;11.566;2023-11-19T04:43:04;95590.81;;;6.33;63.38
73671;BME280;61968;48.178;11.566;2023-11-19T04:45:33;95587.00;;;6.28;63.19
73671;BME280;61968;48.178;11.566;2023-11-19T04:48:00;95585.91;;;6.43;63.87
73671;BME280;61968;48.178;11.566;2023-11-19T04:50:26;95581.22;;;6.65;62.75
73671;BME280;61968;48.178;11.566;2023-11-19T04:52:53;95584.88;;;6.57;62.17
73671;BME280;61968;48.178;11.566;2023-11-19T04:55:21;95591.50;;;6.66;63.39
73671;BME280;61968;48.178;11.566;2023-11-19T04:57:47;95597.84;;;6.39;63.46
73671;BME280;61968;48.178;11.566;2023-11-19T05:00:14;95600.44;;;6.52;62.80
73671;BME280;61968;48.178;11.566;2023-11-19T05:02:42;95596.13;;;6.71;63.40
73671;BME280;61968;48.178;11.566;2023-11-19T05:05:09;95595.88;;;6.86;61.98
73671;BME280;61968;48.178;11.566;2023-11-19T05:07:36;95599.19;;;6.68;62.45
73671;BME280;61968;48.178;11.566;2023-11-19T05:10:03;95603.09;;;6.90;62.43
73671;BME280;61968;48.178;11.566;2023-11-19T05:12:31;95614.78;;;6.56;61.93
73671;BME280;61968;48.178;11.566;2023-11-19T05:14:57;95606.56;;;6.33;65.00
73671;BME280;61968;48.178;11.566;2023-11-19T05:17:24;95616.38;;;6.57;62.92
73671;BME280;61968;48.178;11.566;2023-11-19T05:19:51;95609.19;;;6.33;63.11
73671;BME280;61968;48.178;11.566;2023-11-19T05:22:17;95609.91;;;6.60;63.13
73671;BME280;61968;48.178;11.566;2023-11-19T05:24:45;95615.81;;;6.48;63.83
73671;BME280;61968;48.178;11.566;2023-11-19T05:27:13;95620.31;;;6.80;63.12
73671;BME280;61968;48.178;11.566;2023-11-19T05:29:40;95624.47;;;7.01;62.32
73671;BME280;61968;48.178;11.566;2023-11-19T05:32:08;95623.00;;;6.73;62.34
73671;BME280;61968;48.178;11.566;2023-11-19T05:34:34;95622.41;;;6.64;63.04
73671;BME280;61968;48.178;11.566;2023-11-19T05:37:02;95616.91;;;6.86;61.91
73671;BME280;61968;48.178;11.566;2023-11-19T05:39:30;95622.16;;;6.86;62.00
73671;BME280;61968;48.178;11.566;2023-11-19T05:41:57;95622.19;;;6.72;61.85
73671;BME280;61968;48.178;11.566;2023-11-19T05:44:24;95620.75;;;6.83;61.91
73671;BME280;61968;48.178;11.566;2023-11-19T05:46:50;95619.09;;;6.89;61.90
73671;BME280;61968;48.178;11.566;2023-11-19T05:49:17;95628.97;;;6.93;61.86
73671;BME280;61968;48.178;11.566;2023-11-19T05:51:43;95620.16;;;6.74;61.73
73671;BME280;61968;48.178;11.566;2023-11-19T05:54:12;95624.88;;;6.59;62.71
73671;BME280;61968;48.178;11.566;2023-11-19T05:56:39;95618.53;;;6.80;62.91
73671;BME280;61968;48.178;11.566;2023-11-19T05:59:06;95618.72;;;6.79;62.23
73671;BME280;61968;48.178;11.566;2023-11-19T06:01:40;95606.22;;;6.74;61.99
73671;BME280;61968;48.178;11.566;2023-11-19T06:04:07;95608.81;;;6.81;62.11
73671;BME280;61968;48.178;11.566;2023-11-19T06:06:33;95608.13;;;6.98;62.08
73671;BME280;61968;48.178;11.566;2023-11-19T06:09:00;95612.97;;;7.02;61.15
73671;BME280;61968;48.178;11.566;2023-11-19T06:11:31;95611.34;;;7.01;61.39
73671;BME280;61968;48.178;11.566;2023-11-19T06:13:58;95615.75;;;7.13;60.84
73671;BME280;61968;48.178;11.566;2023-11-19T06:16:24;95620.16;;;7.13;60.74
73671;BME280;61968;48.178;11.566;2023-11-19T06:18:51;95632.78;;;6.97;61.24
73671;BME280;61968;48.178;11.566;2023-11-19T06:21:18;95618.00;;;7.03;61.55
73671;BME280;61968;48.178;11.566;2023-11-19T06:23:45;95610.84;;;7.17;60.69
73671;BME280;61968;48.178;11.566;2023-11-19T06:26:11;95617.38;;;7.08;60.94
73671;BME280;61968;48.178;11.566;2023-11-19T06:28:40;95616.34;;;7.09;60.58
73671;BME280;61968;48.178;11.566;2023-11-19T06:31:07;95620.38;;;7.43;68.07
73671;BME280;61968;48.178;11.566;2023-11-19T06:33:33;95622.75;;;7.58;60.01
73671;BME280;61968;48.178;11.566;2023-11-19T06:36:00;95616.53;;;7.46;60.02
73671;BME280;61968;48.178;11.566;2023-11-19T06:38:26;95615.09;;;7.50;60.26
73671;BME280;61968;48.178;11.566;2023-11-19T06:40:53;95621.59;;;7.47;59.82
73671;BME280;61968;48.178;11.566;2023-11-19T06:43:19;95605.06;;;7.33;59.91
73671;BME280;61968;48.178;11.566;2023-11-19T06:45:47;95617.66;;;7.25;61.08
73671;BME280;61968;48.178;11.566;2023-11-19T06:48:14;95616.91;;;7.17;60.80
73671;BME280;61968;48.178;11.566;2023-11-19T06:50:40;95615.44;;;7.28;60.44
73671;BME280;61968;48.178;11.566;2023-11-19T06:53:07;95631.00;;;6.98;61.53
73671;BME280;61968;48.178;11.566;2023-11-19T06:55:35;95629.66;;;7.20;61.90
73671;BME280;61968;48.178;11.566;2023-11-19T06:58:02;95631.13;;;7.41;60.98
73671;BME280;61968;48.178;11.566;2023-11-19T07:00:28;95631.84;;;7.24;61.03
73671;BME280;61968;48.178;11.566;2023-11-19T07:02:59;95625.06;;;7.41;60.76
73671;BME280;61968;48.178;11.566;2023-11-19T07:05:25;95624.28;;;7.40;60.71
73671;BME280;61968;48.178;11.566;2023-11-19T07:07:52;95625.69;;;7.36;60.60
73671;BME280;61968;48.178;11.566;2023-11-19T07:10:19;95634.75;;;7.47;60.72
73671;BME280;61968;48.178;11.566;2023-11-19T07:12:46;95633.34;;;7.44;60.65
73671;BME280;61968;48.178;11.566;2023-11-19T07:15:15;95625.69;;;7.36;60.36
73671;BME280;61968;48.178;11.566;2023-11-19T07:17:43;95630.16;;;7.36;61.23
73671;BME280;61968;48.178;11.566;2023-11-19T07:20:12;95637.81;;;7.44;60.56
73671;BME280;61968;48.178;11.566;2023-11-19T07:22:42;95639.06;;;7.35;60.74
73671;BME280;61968;48.178;11.566;2023-11-19T07:25:11;95641.00;;;7.46;61.68
73671;BME280;61968;48.178;11.566;2023-11-19T07:27:37;95637.09;;;7.62;60.55
73671;BME280;61968;48.178;11.566;2023-11-19T07:30:05;95645.88;;;7.42;60.41
73671;BME280;61968;48.178;11.566;2023-11-19T07:32:32;95648.91;;;7.53;61.33
73671;BME280;61968;48.178;11.566;2023-11-19T07:34:59;95653.34;;;7.52;60.57
73671;BME280;61968;48.178;11.566;2023-11-19T07:37:27;95661.59;;;7.62;60.96
73671;BME280;61968;48.178;11.566;2023-11-19T07:39:53;95670.47;;;7.68;60.20
73671;BME280;61968;48.178;11.566;2023-11-19T07:42:19;95669.13;;;7.84;60.37
73671;BME280;61968;48.178;11.566;2023-11-19T07:44:46;95674.88;;;7.74;60.36
73671;BME280;61968;48.178;11.566;2023-11-19T07:47:12;95677.44;;;7.81;60.29
73671;BME280;61968;48.178;11.566;2023-11-19T07:49:39;95671.09;;;7.88;60.56
73671;BME280;61968;48.178;11.566;2023-11-19T07:52:05;95676.72;;;7.99;59.61
73671;BME280;61968;48.178;11.566;2023-11-19T07:54:33;95671.00;;;8.02;59.36
73671;BME280;61968;48.178;11.566;2023-11-19T07:57:00;95668.03;;;7.92;59.99
73671;BME280;61968;48.178;11.566;2023-11-19T07:59:26;95683.16;;;8.03;59.69
73671;BME280;61968;48.178;11.566;2023-11-19T08:01:52;95682.91;;;7.79;60.35
73671;BME280;61968;48.178;11.566;2023-11-19T08:04:19;95675.13;;;7.91;59.92
73671;BME280;61968;48.178;11.566;2023-11-19T08:06:45;95672.00;;;7.76;60.96
73671;BME280;61968;48.178;11.566;2023-11-19T08:09:12;95677.50;;;7.99;59.75
73671;BME280;61968;48.178;11.566;2023-11-19T08:11:41;95678.53;;;7.98;59.89
73671;BME280;61968;48.178;11.566;2023-11-19T08:14:08;95683.41;;;7.95;59.87
73671;BME280;61968;48.178;11.566;2023-11-19T08:16:34;95682.84;;;7.93;59.92
73671;BME280;61968;48.178;11.566;2023-11-19T08:19:01;95683.94;;;8.03;59.58
73671;BME280;61968;48.178;11.566;2023-11-19T08:21:28;95681.53;;;8.02;59.71
73671;BME280;61968;48.178;11.566;2023-11-19T08:23:54;95685.88;;;8.15;59.15
73671;BME280;61968;48.178;11.566;2023-11-19T08:26:21;95671.31;;;8.12;59.42
73671;BME280;61968;48.178;11.566;2023-11-19T08:28:49;95681.59;;;8.20;59.17
73671;BME280;61968;48.178;11.566;2023-11-19T08:31:17;95684.16;;;8.27;58.98
73671;BME280;61968;48.178;11.566;2023-11-19T08:33:43;95677.72;;;8.23;59.47
73671;BME280;61968;48.178;11.566;2023-11-19T08:36:15;95686.59;;;8.28;59.07
73671;BME280;61968;48.178;11.566;2023-11-19T08:38:42;95686.59;;;8.28;59.32
73671;BME280;61968;48.178;11.566;2023-11-19T08:41:08;95694.00;;;8.38;58.96
73671;BME280;61968;48.178;11.566;2023-11-19T08:43:35;95684.94;;;8.34;58.93
73671;BME280;61968;48.178;11.566;2023-11-19T08:46:03;95685.22;;;8.44;58.31
73671;BME280;61968;48.178;11.566;2023-11-19T08:48:30;95685.44;;;8.43;58.15
73671;BME280;61968;48.178;11.566;2023-11-19T08:50:56;95696.47;;;8.33;58.49
73671;BME280;61968;48.178;11.566;2023-11-19T08:53:22;95685.88;;;8.15;59.36
73671;BME280;61968;48.178;11.566;2023-11-19T08:55:49;95693.75;;;7.96;60.06
73671;BME280;61968;48.178;11.566;2023-11-19T08:58:15;95684.78;;;8.04;59.66
73671;BME280;61968;48.178;11.566;2023-11-19T09:00:43;95694.69;;;8.27;59.34
73671;BME280;61968;48.178;11.566;2023-11-19T09:03:11;95690.31;;;8.39;58.39
73671;BME280;61968;48.178;11.566;2023-11-19T09:05:37;95684.56;;;8.49;58.84
73671;BME280;61968;48.178;11.566;2023-11-19T09:08:04;95680.00;;;8.81;59.53
73671;BME280;61968;48.178;11.566;2023-11-19T09:10:31;95677.47;;;9.23;58.52
73671;BME280;61968;48.178;11.566;2023-11-19T09:12:58;95683.56;;;9.05;57.10
73671;BME280;61968;48.178;11.566;2023-11-19T09:15:24;95682.19;;;8.84;57.59
73671;BME280;61968;48.178;11.566;2023-11-19T09:17:51;95679.84;;;8.76;58.10
73671;BME280;61968;48.178;11.566;2023-11-19T09:20:18;95691.88;;;8.72;58.07
73671;BME280;61968;48.178;11.566;2023-11-19T09:22:45;95695.22;;;8.35;58.65
73671;BME280;61968;48.178;11.566;2023-11-19T09:25:12;95698.25;;;8.57;58.73
73671;BME280;61968;48.178;11.566;2023-11-19T09:27:42;95700.63;;;8.66;58.67
73671;BME280;61968;48.178;11.566;2023-11-19T09:30:09;95705.28;;;8.45;59.18
73671;BME280;61968;48.178;11.566;2023-11-19T09:32:35;95704.69;;;8.43;59.49
73671;BME280;61968;48.178;11.566;2023-11-19T09:35:03;95706.09;;;7.96;60.75
73671;BME280;61968;48.178;11.566;2023-11-19T09:37:31;95709.00;;;8.12;60.63
73671;BME280;61968;48.178;11.566;2023-11-19T09:39:58;95697.69;;;8.55;59.42
73671;BME280;61968;48.178;11.566;2023-11-19T09:42:24;95712.59;;;8.43;59.31
73671;BME280;61968;48.178;11.566;2023-11-19T09:44:53;95707.34;;;8.43;58.93
73671;BME280;61968;48.178;11.566;2023-11-19T09:47:21;95710.19;;;8.17;60.51
73671;BME280;61968;48.178;11.566;2023-11-19T09:49:49;95696.56;;;8.45;60.40
73671;BME280;61968;48.178;11.566;2023-11-19T09:52:15;95690.13;;;8.41;59.67
73671;BME280;61968;48.178;11.566;2023-11-19T09:54:43;95689.59;;;8.32;60.57
73671;BME280;61968;48.178;11.566;2023-11-19T09:57:11;95679.38;;;8.61;59.63
73671;BME280;61968;48.178;11.566;2023-11-19T09:59:40;95685.19;;;8.26;61.50
73671;BME280;61968;48.178;11.566;2023-11-19T10:02:07;95693.34;;;8.68;59.92
73671;BME280;61968;48.178;11.566;2023-11-19T10:04:35;95677.22;;;8.76;59.12
73671;BME280;61968;48.178;11.566;2023-11-19T10:07:03;95669.63;;;8.68;59.51
73671;BME280;61968;48.178;11.566;2023-11-19T10:09:29;95659.44;;;8.71;59.24
73671;BME280;61968;48.178;11.566;2023-11-19T10:11:57;95672.13;;;8.56;60.02
73671;BME280;61968;48.178;11.566;2023-11-19T10:14:24;95675.31;;;8.83;59.44
73671;BME280;61968;48.178;11.566;2023-11-19T10:16:50;95660.94;;;8.79;59.32
73671;BME280;61968;48.178;11.566;2023-11-19T10:19:20;95657.81;;;8.89;59.29
73671;BME280;61968;48.178;11.566;2023-11-19T10:21:48;95664.44;;;8.54;59.37
73671;BME280;61968;48.178;11.566;2023-11-19T10:24:14;95652.31;;;8.72;59.30
73671;BME280;61968;48.178;11.566;2023-11-19T10:26:41;95660.38;;;8.95;59.08
73671;BME280;61968;48.178;11.566;2023-11-19T10:29:12;95655.88;;;8.59;59.41
73671;BME280;61968;48.178;11.566;2023-11-19T10:31:39;95651.16;;;8.86;59.65
73671;BME280;61968;48.178;11.566;2023-11-19T10:34:24;95649.53;;;8.85;59.19
73671;BME280;61968;48.178;11.566;2023-11-19T10:36:50;95636.50;;;9.20;57.95
73671;BME280;61968;48.178;11.566;2023-11-19T10:39:17;95638.88;;;9.10;57.92
73671;BME280;61968;48.178;11.566;2023-11-19T10:41:44;95633.22;;;9.07;58.29
73671;BME280;61968;48.178;11.566;2023-11-19T10:44:12;95631.50;;;8.82;58.97
73671;BME280;61968;48.178;11.566;2023-11-19T10:46:39;95634.44;;;8.92;58.78
73671;BME280;61968;48.178;11.566;2023-11-19T10:49:06;95627.34;;;9.23;58.45
73671;BME280;61968;48.178;11.566;2023-11-19T10:51:33;95618.44;;;9.36;57.44
73671;BME280;61968;48.178;11.566;2023-11-19T10:54:02;95623.38;;;9.32;57.57
73671;BME280;61968;48.178;11.566;2023-11-19T10:56:31;95629.78;;;9.36;57.07
73671;BME280;61968;48.178;11.566;2023-11-19T10:58:59;95629.13;;;9.41;57.12
73671;BME280;61968;48.178;11.566;2023-11-19T11:01:43;95625.84;;;9.57;56.48
73671;BME280;61968;48.178;11.566;2023-11-19T11:04:13;95621.84;;;9.24;57.65
73671;BME280;61968;48.178;11.566;2023-11-19T11:06:40;95625.16;;;9.62;56.77
73671;BME280;61968;48.178;11.566;2023-11-19T11:09:07;95621.88;;;9.78;55.76
73671;BME280;61968;48.178;11.566;2023-11-19T11:11:37;95609.78;;;9.59;56.35
73671;BME280;61968;48.178;11.566;2023-11-19T11:14:04;95602.78;;;9.53;56.70
73671;BME280;61968;48.178;11.566;2023-11-19T11:16:32;95605.28;;;9.47;56.50
73671;BME280;61968;48.178;11.566;2023-11-19T11:19:01;95606.97;;;9.42;56.10
73671;BME280;61968;48.178;11.566;2023-11-19T11:21:28;95616.88;;;8.86;57.41
73671;BME280;61968;48.178;11.566;2023-11-19T11:24:16;95614.31;;;9.28;57.15
73671;BME280;61968;48.178;11.566;2023-11-19T11:27:03;95608.47;;;9.38;56.72
73671;BME280;61968;48.178;11.566;2023-11-19T11:29:38;95614.13;;;9.53;56.82
73671;BME280;61968;48.178;11.566;2023-11-19T11:32:12;95608.81;;;9.83;55.46
73671;BME280;61968;48.178;11.566;2023-11-19T11:34:57;95600.84;;;9.71;56.04
73671;BME280;61968;48.178;11.566;2023-11-19T11:37:30;95607.94;;;9.59;56.57
73671;BME280;61968;48.178;11.566;2023-11-19T11:39:59;95602.63;;;9.47;56.49
73671;BME280;61968;48.178;11.566;2023-11-19T11:42:31;95604.13;;;9.43;56.38
73671;BME280;61968;48.178;11.566;2023-11-19T11:45:02;95591.47;;;9.87;55.78
73671;BME280;61968;48.178;11.566;2023-11-19T11:50:56;95578.94;;;10.06;54.84
73671;BME280;61968;48.178;11.566;2023-11-19T11:53:24;95594.91;;;10.23;54.24
73671;BME280;61968;48.178;11.566;2023-11-19T11:55:55;95593.00;;;10.07;54.54
73671;BME280;61968;48.178;11.566;2023-11-19T11:58:26;95600.41;;;10.45;54.41
73671;BME280;61968;48.178;11.566;2023-11-19T12:00:53;95599.38;;;10.58;52.76
73671;BME280;61968;48.178;11.566;2023-11-19T12:03:20;95599.25;;;10.53;52.92
73671;BME280;61968;48.178;11.566;2023-11-19T12:05:48;95589.41;;;10.89;52.36
73671;BME280;61968;48.178;11.566;2023-11-19T12:08:25;95578.16;;;10.70;52.09
73671;BME280;61968;48.178;11.566;2023-11-19T12:10:53;95577.47;;;10.34;52.96
73671;BME280;61968;48.178;11.566;2023-11-19T12:13:23;95591.84;;;10.78;52.23
73671;BME280;61968;48.178;11.566;2023-11-19T12:16:10;95588.84;;;10.87;50.86
73671;BME280;61968;48.178;11.566;2023-11-19T12:18:39;95599.78;;;10.78;51.18
73671;BME280;61968;48.178;11.566;2023-11-19T12:21:07;95595.41;;;10.72;51.87
73671;BME280;61968;48.178;11.566;2023-11-19T12:23:44;95593.56;;;10.84;51.82
73671;BME280;61968;48.178;11.566;2023-11-19T12:26:35;95598.50;;;10.69;52.03
73671;BME280;61968;48.178;11.566;2023-11-19T12:29:02;95581.47;;;11.17;50.94
73671;BME280;61968;48.178;11.566;2023-11-19T12:31:31;95572.84;;;11.39;49.76
73671;BME280;61968;48.178;11.566;2023-11-19T12:34:04;95564.00;;;11.33;49.45
73671;BME280;61968;48.178;11.566;2023-11-19T12:36:31;95557.91;;;11.16;49.66
73671;BME280;61968;48.178;11.566;2023-11-19T12:38:59;95559.06;;;11.37;49.40
73671;BME280;61968;48.178;11.566;2023-11-19T12:41:25;95556.31;;;11.48;49.27
73671;BME280;61968;48.178;11.566;2023-11-19T12:43:52;95560.34;;;11.85;48.32
73671;BME280;61968;48.178;11.566;2023-11-19T12:46:20;95558.75;;;11.84;48.44
73671;BME280;61968;48.178;11.566;2023-11-19T12:48:47;95555.13;;;11.56;48.30
73671;BME280;61968;48.178;11.566;2023-11-19T12:51:13;95553.44;;;11.67;49.00
73671;BME280;61968;48.178;11.566;2023-11-19T12:53:50;95540.28;;;11.55;47.92
73671;BME280;61968;48.178;11.566;2023-11-19T12:56:20;95544.09;;;11.30;48.80
73671;BME280;61968;48.178;11.566;2023-11-19T12:58:47;95544.94;;;11.48;48.66
73671;BME280;61968;48.178;11.566;2023-11-19T13:01:16;95543.84;;;11.77;48.47
73671;BME280;61968;48.178;11.566;2023-11-19T13:03:44;95546.94;;;11.58;48.39
73671;BME280;61968;48.178;11.566;2023-11-19T13:06:12;95543.25;;;11.42;48.57
73671;BME280;61968;48.178;11.566;2023-11-19T13:08:41;95540.69;;;11.47;48.40